Tera Jet — 5BBY4 — position and weather

sailwx.info

Track history (hours):
 
Tides and Currents Weather Stations Pressure Air Temp Water Temp Dewpoint Dewpoint Depression Visibility Wind Speed Wind Dir Waves Ship Positions

Tera Jet

Last reported at 2018-Jun-24 11:01 UTC. Time now 2018-Jun-24 11:16 UTC.
Position N 37°18' E 025°13'.

Length 146 m; draft 3.8 m.

Type: High speed craft. MMSI: 212260000.

Date/timePositionNaut miles runAvg speedWind from/ knotsBaromVisibWave heightAir tempDewpointWater temp
2018-Jun-24 11:01N 37°18' E 025°13'12 5.0
2018-Jun-24 08:32N 37°07' E 025°08'129.1
2018-Jun-24 08:30N 37°07' E 025°08'1529.4
2018-Jun-24 08:01N 37°21' E 025°16'815.3
2018-Jun-24 07:30N 37°28' E 025°19'917.7
2018-Jun-24 06:59N 37°32' E 025°09'4626.9
2018-Jun-24 05:16N 37°54' E 024°18'1128.9
2018-Jun-24 04:54N 37°59' E 024°06'3 0.2
2018-Jun-23 14:27N 38°01' E 024°03'4128.5
2018-Jun-23 13:02N 37°41' E 024°48'129.5
2018-Jun-23 13:00N 37°41' E 024°49'1529.2
2018-Jun-23 12:30N 37°34' E 025°05'510.6
2018-Jun-23 12:00N 37°31' E 025°10'815.9
2018-Jun-23 11:30N 37°28' E 025°20'918.6
2018-Jun-23 11:01N 37°19' E 025°15'15 6.2
2018-Jun-23 08:34N 37°05' E 025°08'112.3
2018-Jun-23 08:28N 37°06' E 025°08'1328.3
2018-Jun-23 08:00N 37°18' E 025°14'1121.0
2018-Jun-23 07:30N 37°28' E 025°19'918.1
2018-Jun-23 07:00N 37°32' E 025°09'1223.8
2018-Jun-23 06:30N 37°37' E 024°55'4528.9
2018-Jun-23 04:56N 37°59' E 024°06'4 0.4
2018-Jun-22 19:01N 38°01' E 024°02'014.1
2018-Jun-22 19:00N 38°01' E 024°02'6 2.2
2018-Jun-22 16:33N 37°59' E 024°09'228.4
2018-Jun-22 16:29N 37°60' E 024°07'5 2.5
2018-Jun-22 14:35N 38°01' E 024°01'315.7
2018-Jun-22 14:26N 38°01' E 024°04'4028.7
2018-Jun-22 13:03N 37°41' E 024°48'129.3
2018-Jun-22 13:01N 37°40' E 024°49'1529.2
2018-Jun-22 12:31N 37°33' E 025°05'5 9.1
2018-Jun-22 12:01N 37°31' E 025°10'816.8
2018-Jun-22 11:30N 37°28' E 025°20'917.8
2018-Jun-22 11:00N 37°20' E 025°15'15 6.4
2018-Jun-22 08:36N 37°05' E 025°08'112.2
2018-Jun-22 08:29N 37°06' E 025°08'1429.1
2018-Jun-22 08:01N 37°19' E 025°15'1018.9
2018-Jun-22 07:30N 37°28' E 025°19'917.3
2018-Jun-22 06:59N 37°32' E 025°09'1224.5
2018-Jun-22 06:29N 37°37' E 024°55'4528.7
2018-Jun-22 04:55N 37°59' E 024°06'  
2018-Jun-17 14:39N 38°01' E 024°01'413.2
2018-Jun-17 14:23N 38°01' E 024°05'3929.1
2018-Jun-17 13:03N 37°41' E 024°48'229.2
2018-Jun-17 13:00N 37°40' E 024°49'1429.3
2018-Jun-17 12:31N 37°33' E 025°05'713.1
2018-Jun-17 12:01N 37°30' E 025°13'611.8
2018-Jun-17 11:30N 37°28' E 025°19'0 0.0
2018-Jun-17 10:59N 37°28' E 025°19'0 0.0
2018-Jun-17 10:25N 37°28' E 025°19'0 0.0
2018-Jun-17 09:59N 37°28' E 025°19'0 0.0
2018-Jun-17 09:30N 37°28' E 025°19'0 0.0
2018-Jun-17 08:59N 37°28' E 025°19'0 0.0
2018-Jun-17 08:25N 37°28' E 025°19'0 0.0
2018-Jun-17 07:57N 37°28' E 025°19'0 0.1
2018-Jun-17 07:30N 37°28' E 025°19'918.4
2018-Jun-17 07:01N 37°32' E 025°09'1219.8
2018-Jun-17 06:23N 37°37' E 024°55'3629.6
2018-Jun-17 05:11N 37°55' E 024°16'929.5
2018-Jun-17 04:53N 37°59' E 024°06'3 0.2
2018-Jun-16 14:27N 38°01' E 024°03'4128.7
2018-Jun-16 13:02N 37°41' E 024°48'129.3
2018-Jun-16 13:00N 37°41' E 024°49'1529.4
2018-Jun-16 12:31N 37°34' E 025°05'611.5
2018-Jun-16 12:00N 37°31' E 025°11'713.6
2018-Jun-16 11:28N 37°28' E 025°20'0 0.0
2018-Jun-16 10:58N 37°28' E 025°20'0 0.0
2018-Jun-16 10:28N 37°28' E 025°20'0 0.0
2018-Jun-16 10:00N 37°28' E 025°20'0 0.0
2018-Jun-16 09:29N 37°28' E 025°20'0 0.0
2018-Jun-16 08:59N 37°28' E 025°20'0 0.0
2018-Jun-16 08:30N 37°28' E 025°20'0 0.0
2018-Jun-16 08:00N 37°28' E 025°20'1 1.1
2018-Jun-16 07:30N 37°28' E 025°19'917.4
2018-Jun-16 07:01N 37°32' E 025°09'1927.5
2018-Jun-16 06:19N 37°41' E 024°49'3128.6
2018-Jun-16 05:15N 37°56' E 024°14'728.8
2018-Jun-16 04:59N 37°59' E 024°06'  
Track history (hours):
 
Tides and Currents Weather Stations Pressure Air Temp Water Temp Dewpoint Dewpoint Depression Visibility Wind Speed Wind Dir Waves Ship Positions

Tera Jet

Last reported at 2018-Jun-24 11:01 UTC. Time now 2018-Jun-24 11:16 UTC.
Position N 37°18' E 025°13'.

Length 146 m; draft 3.8 m.

Type: High speed craft. MMSI: 212260000.

Date/timePositionNaut miles runAvg speedWind from/ knotsBaromVisibWave heightAir tempDewpointWater temp
2018-Jun-24 11:01N 37°18' E 025°13'12 5.0
2018-Jun-24 08:32N 37°07' E 025°08'129.1
2018-Jun-24 08:30N 37°07' E 025°08'1529.4
2018-Jun-24 08:01N 37°21' E 025°16'815.3
2018-Jun-24 07:30N 37°28' E 025°19'917.7
2018-Jun-24 06:59N 37°32' E 025°09'4626.9
2018-Jun-24 05:16N 37°54' E 024°18'1128.9
2018-Jun-24 04:54N 37°59' E 024°06'3 0.2
2018-Jun-23 14:27N 38°01' E 024°03'4128.5
2018-Jun-23 13:02N 37°41' E 024°48'129.5
2018-Jun-23 13:00N 37°41' E 024°49'1529.2
2018-Jun-23 12:30N 37°34' E 025°05'510.6
2018-Jun-23 12:00N 37°31' E 025°10'815.9
2018-Jun-23 11:30N 37°28' E 025°20'918.6
2018-Jun-23 11:01N 37°19' E 025°15'15 6.2
2018-Jun-23 08:34N 37°05' E 025°08'112.3
2018-Jun-23 08:28N 37°06' E 025°08'1328.3
2018-Jun-23 08:00N 37°18' E 025°14'1121.0
2018-Jun-23 07:30N 37°28' E 025°19'918.1
2018-Jun-23 07:00N 37°32' E 025°09'1223.8
2018-Jun-23 06:30N 37°37' E 024°55'4528.9
2018-Jun-23 04:56N 37°59' E 024°06'4 0.4
2018-Jun-22 19:01N 38°01' E 024°02'014.1
2018-Jun-22 19:00N 38°01' E 024°02'6 2.2
2018-Jun-22 16:33N 37°59' E 024°09'228.4
2018-Jun-22 16:29N 37°60' E 024°07'5 2.5
2018-Jun-22 14:35N 38°01' E 024°01'315.7
2018-Jun-22 14:26N 38°01' E 024°04'4028.7
2018-Jun-22 13:03N 37°41' E 024°48'129.3
2018-Jun-22 13:01N 37°40' E 024°49'1529.2
2018-Jun-22 12:31N 37°33' E 025°05'5 9.1
2018-Jun-22 12:01N 37°31' E 025°10'816.8
2018-Jun-22 11:30N 37°28' E 025°20'917.8
2018-Jun-22 11:00N 37°20' E 025°15'15 6.4
2018-Jun-22 08:36N 37°05' E 025°08'112.2
2018-Jun-22 08:29N 37°06' E 025°08'1429.1
2018-Jun-22 08:01N 37°19' E 025°15'1018.9
2018-Jun-22 07:30N 37°28' E 025°19'917.3
2018-Jun-22 06:59N 37°32' E 025°09'1224.5
2018-Jun-22 06:29N 37°37' E 024°55'4528.7
2018-Jun-22 04:55N 37°59' E 024°06'  
2018-Jun-17 14:39N 38°01' E 024°01'413.2
2018-Jun-17 14:23N 38°01' E 024°05'3929.1
2018-Jun-17 13:03N 37°41' E 024°48'229.2
2018-Jun-17 13:00N 37°40' E 024°49'1429.3
2018-Jun-17 12:31N 37°33' E 025°05'713.1
2018-Jun-17 12:01N 37°30' E 025°13'611.8
2018-Jun-17 11:30N 37°28' E 025°19'0 0.0
2018-Jun-17 10:59N 37°28' E 025°19'0 0.0
2018-Jun-17 10:25N 37°28' E 025°19'0 0.0
2018-Jun-17 09:59N 37°28' E 025°19'0 0.0
2018-Jun-17 09:30N 37°28' E 025°19'0 0.0
2018-Jun-17 08:59N 37°28' E 025°19'0 0.0
2018-Jun-17 08:25N 37°28' E 025°19'0 0.0
2018-Jun-17 07:57N 37°28' E 025°19'0 0.1
2018-Jun-17 07:30N 37°28' E 025°19'918.4
2018-Jun-17 07:01N 37°32' E 025°09'1219.8
2018-Jun-17 06:23N 37°37' E 024°55'3629.6
2018-Jun-17 05:11N 37°55' E 024°16'929.5
2018-Jun-17 04:53N 37°59' E 024°06'3 0.2
2018-Jun-16 14:27N 38°01' E 024°03'4128.7
2018-Jun-16 13:02N 37°41' E 024°48'129.3
2018-Jun-16 13:00N 37°41' E 024°49'1529.4
2018-Jun-16 12:31N 37°34' E 025°05'611.5
2018-Jun-16 12:00N 37°31' E 025°11'713.6
2018-Jun-16 11:28N 37°28' E 025°20'0 0.0
2018-Jun-16 10:58N 37°28' E 025°20'0 0.0
2018-Jun-16 10:28N 37°28' E 025°20'0 0.0
2018-Jun-16 10:00N 37°28' E 025°20'0 0.0
2018-Jun-16 09:29N 37°28' E 025°20'0 0.0
2018-Jun-16 08:59N 37°28' E 025°20'0 0.0
2018-Jun-16 08:30N 37°28' E 025°20'0 0.0
2018-Jun-16 08:00N 37°28' E 025°20'1 1.1
2018-Jun-16 07:30N 37°28' E 025°19'917.4
2018-Jun-16 07:01N 37°32' E 025°09'1927.5
2018-Jun-16 06:19N 37°41' E 024°49'3128.6
2018-Jun-16 05:15N 37°56' E 024°14'728.8
2018-Jun-16 04:59N 37°59' E 024°06'  

Dump ship's entire track history